Quamba, Minnesota
Current Conditions -  °F | °C
As of 10:55 AM on Thursday 23 Oct 2014 (Local Time) from KJMR Reporting Station
Haze Haze  
Wind Chill: 50°   Ceiling: 200
Heat Index: 50°   Visibility: 3mi
Dew Point: 50°   Wind: 6mph
Humidity: 100%   Direction: 220°SW
Pressure: 30"   Gusts: NA
Location:  45.9652°N, 93.2874°W
Report Text: KJMR 231555Z AUTO 22005KT 3SM BR OVC002 10/10 A3000 RMK AO2
Loading
Personal Weather Stations






























Interactive Weather Map
Tropical Storm Tracking
New forecast layout! Learn more

10-Day Weather Forecast

Advertisements
Track Severe Weather on mobile